Time;durP1;ratioP1;P1;durP2;ratioP2;P2;SDS_P1;SDS_P2;PMS_P1;PMS_P2;Temp;Humidity;BMP_temperature;BMP_pressure;BME280_temperature;BME280_humidity;BME280_pressure;Samples;Min_cycle;Max_cycle;Signal;HPM_P1;HPM_P2
2023/08/15 02:02:28;;;;;;;7.10;5.40;;;;;;;;;;4336941;28;20429;-75
2023/08/15 02:04:55;;;;;;;10.32;5.55;;;;;;;;;;4310820;33;20048;-75
2023/08/15 02:07:24;;;;;;;9.95;5.80;;;;;;;;;;4312194;33;20041;-75
2023/08/15 02:09:50;;;;;;;8.90;5.90;;;;;;;;;;4311754;33;20060;-75
2023/08/15 02:12:17;;;;;;;9.98;5.80;;;;;;;;;;4309651;33;20049;-74
2023/08/15 02:14:43;;;;;;;10.23;5.85;;;;;;;;;;4310915;33;20377;-74
2023/08/15 02:17:10;;;;;;;14.27;5.50;;;;;;;;;;4294374;33;20053;-75
2023/08/15 02:19:37;;;;;;;14.23;6.03;;;;;;;;;;4296605;33;20075;-76
2023/08/15 02:22:03;;;;;;;10.85;6.00;;;;;;;;;;4295247;33;20037;-75
2023/08/15 02:24:29;;;;;;;12.70;5.97;;;;;;;;;;4294662;33;20063;-75
2023/08/15 02:26:56;;;;;;;9.80;5.25;;;;;;;;;;4295702;33;20063;-75
2023/08/15 02:29:22;;;;;;;12.32;5.80;;;;;;;;;;4294603;33;20045;-75
2023/08/15 02:31:48;;;;;;;10.93;5.72;;;;;;;;;;4296222;33;20430;-75
2023/08/15 02:34:18;;;;;;;19.85;6.07;;;;;;;;;;4294356;33;20045;-75
2023/08/15 02:36:47;;;;;;;6.22;5.60;;;;;;;;;;4296371;33;20498;-75
2023/08/15 02:39:15;;;;;;;10.40;7.18;;;;;;;;;;4294563;33;20061;-77
2023/08/15 02:41:41;;;;;;;11.00;5.90;;;;;;;;;;4296273;33;20984;-76
2023/08/15 02:44:08;;;;;;;11.48;5.72;;;;;;;;;;4295821;33;20098;-74
2023/08/15 02:46:34;;;;;;;11.90;6.82;;;;;;;;;;4294374;33;20446;-75
2023/08/15 02:49:00;;;;;;;7.95;6.07;;;;;;;;;;4307886;33;20485;-75
2023/08/15 02:51:26;;;;;;;6.70;5.05;;;;;;;;;;4310413;33;20459;-75
2023/08/15 02:53:52;;;;;;;10.25;5.93;;;;;;;;;;4312447;33;20048;-75
2023/08/15 02:56:18;;;;;;;12.73;5.35;;;;;;;;;;4312439;33;20103;-75
2023/08/15 02:58:45;;;;;;;16.80;7.03;;;;;;;;;;4312756;33;20070;-75
2023/08/15 03:01:11;;;;;;;13.68;5.93;;;;;;;;;;4308840;33;20033;-75
2023/08/15 03:03:37;;;;;;;14.15;6.50;;;;;;;;;;4312559;33;20063;-74
2023/08/15 03:06:03;;;;;;;9.15;5.90;;;;;;;;;;4312487;33;20455;-76
2023/08/15 03:08:30;;;;;;;21.50;6.53;;;;;;;;;;4312337;33;20053;-75
2023/08/15 03:10:58;;;;;;;8.55;6.30;;;;;;;;;;4310456;33;20062;-75
2023/08/15 03:13:25;;;;;;;12.07;5.50;;;;;;;;;;4312737;33;20058;-75
2023/08/15 03:15:52;;;;;;;12.02;5.57;;;;;;;;;;4312269;33;20394;-75
2023/08/15 03:18:19;;;;;;;10.50;5.32;;;;;;;;;;4312327;33;20092;-74
2023/08/15 03:20:59;;;;;;;5.65;5.00;;;;;;;;;;4310251;33;20061;-75
2023/08/15 03:23:25;;;;;;;12.98;5.82;;;;;;;;;;4322893;33;20060;-75
2023/08/15 03:25:58;;;;;;;10.98;5.20;;;;;;;;;;4324654;33;20449;-75
2023/08/15 03:28:26;;;;;;;17.77;6.22;;;;;;;;;;4322862;33;20044;-74
2023/08/15 03:30:53;;;;;;;14.35;4.70;;;;;;;;;;4309522;33;20052;-75
2023/08/15 03:33:19;;;;;;;22.02;6.28;;;;;;;;;;4309479;33;20059;-75
2023/08/15 03:35:46;;;;;;;12.00;5.80;;;;;;;;;;4309333;33;20396;-75
2023/08/15 03:38:20;;;;;;;9.95;4.97;;;;;;;;;;4308713;33;20040;-75
2023/08/15 03:40:46;;;;;;;14.27;5.90;;;;;;;;;;4310111;33;20048;-75
2023/08/15 03:43:13;;;;;;;21.02;5.68;;;;;;;;;;4309985;33;20040;-75
2023/08/15 03:45:40;;;;;;;11.93;4.93;;;;;;;;;;4309770;33;20355;-74
2023/08/15 03:48:06;;;;;;;10.98;5.55;;;;;;;;;;4309836;33;20422;-74
2023/08/15 03:50:33;;;;;;;23.80;5.10;;;;;;;;;;4306419;33;20091;-75
2023/08/15 03:53:00;;;;;;;14.73;5.45;;;;;;;;;;4309782;33;20067;-75
2023/08/15 03:55:29;;;;;;;9.68;5.43;;;;;;;;;;4308210;33;20045;-75
2023/08/15 03:57:55;;;;;;;19.08;5.00;;;;;;;;;;4309483;33;20393;-75
2023/08/15 04:00:21;;;;;;;8.38;4.68;;;;;;;;;;4301255;33;20042;-75
2023/08/15 04:02:48;;;;;;;13.73;4.95;;;;;;;;;;4292398;33;20096;-75
2023/08/15 04:05:15;;;;;;;7.12;4.82;;;;;;;;;;4295140;33;20096;-75
2023/08/15 04:07:41;;;;;;;13.13;4.47;;;;;;;;;;4295405;33;20045;-76
2023/08/15 04:10:07;;;;;;;5.20;4.65;;;;;;;;;;4293908;33;20477;-75
2023/08/15 04:12:33;;;;;;;23.12;5.68;;;;;;;;;;4295108;33;20426;-75
2023/08/15 04:15:00;;;;;;;13.48;4.35;;;;;;;;;;4291792;33;20064;-75
2023/08/15 04:17:27;;;;;;;7.93;4.15;;;;;;;;;;4275390;33;21124;-75
2023/08/15 04:19:53;;;;;;;14.13;4.85;;;;;;;;;;4280630;33;20054;-75
2023/08/15 04:22:19;;;;;;;10.27;3.62;;;;;;;;;;4279387;33;20114;-76
2023/08/15 04:24:45;;;;;;;12.13;4.78;;;;;;;;;;4280610;33;20063;-74
2023/08/15 04:27:12;;;;;;;5.53;4.18;;;;;;;;;;4289416;33;20082;-75
2023/08/15 04:29:38;;;;;;;12.40;4.53;;;;;;;;;;4293919;33;20603;-75
2023/08/15 04:32:04;;;;;;;9.57;4.32;;;;;;;;;;4294945;33;20049;-74
2023/08/15 04:34:30;;;;;;;5.80;4.18;;;;;;;;;;4293972;33;20029;-74
2023/08/15 04:36:57;;;;;;;5.87;4.62;;;;;;;;;;4296283;33;20070;-74
2023/08/15 04:39:23;;;;;;;7.55;4.60;;;;;;;;;;4267904;33;20034;-75
2023/08/15 04:44:22;;;;;;;11.60;5.20;;;;;;;;;;4269103;33;20026;-73
2023/08/15 04:46:49;;;;;;;15.50;4.30;;;;;;;;;;4268715;33;20225;-75
2023/08/15 04:49:15;;;;;;;8.45;4.32;;;;;;;;;;4268995;33;20079;-75
2023/08/15 04:51:41;;;;;;;9.02;4.43;;;;;;;;;;4267436;33;20049;-75
2023/08/15 04:54:07;;;;;;;9.90;3.97;;;;;;;;;;4269193;33;20076;-75
2023/08/15 04:56:33;;;;;;;14.87;4.03;;;;;;;;;;4268788;33;20480;-75
2023/08/15 04:58:59;;;;;;;10.45;3.72;;;;;;;;;;4268582;33;20101;-74
2023/08/15 05:01:27;;;;;;;11.05;4.28;;;;;;;;;;4268428;33;20050;-74
2023/08/15 05:03:52;;;;;;;4.93;3.85;;;;;;;;;;4266920;33;20030;-75
2023/08/15 05:06:19;;;;;;;9.25;3.45;;;;;;;;;;4268121;33;20111;-75
2023/08/15 05:08:45;;;;;;;6.25;3.35;;;;;;;;;;4268855;33;20054;-75
2023/08/15 05:11:11;;;;;;;7.10;3.65;;;;;;;;;;4268939;33;20130;-74
2023/08/15 05:13:37;;;;;;;9.55;3.80;;;;;;;;;;4267542;33;20035;-75
2023/08/15 05:16:04;;;;;;;5.05;3.92;;;;;;;;;;4271926;33;20046;-74
2023/08/15 05:18:32;;;;;;;11.50;3.80;;;;;;;;;;4281411;33;20067;-75
2023/08/15 05:20:58;;;;;;;7.40;4.82;;;;;;;;;;4282706;33;20084;-74
2023/08/15 05:23:24;;;;;;;8.40;4.05;;;;;;;;;;4281770;33;20057;-75
2023/08/15 05:25:51;;;;;;;6.55;4.43;;;;;;;;;;4280223;33;20134;-75
2023/08/15 05:28:17;;;;;;;7.40;3.60;;;;;;;;;;4253905;33;20046;-75
2023/08/15 05:30:44;;;;;;;5.40;3.83;;;;;;;;;;4254443;33;20046;-75
2023/08/15 05:33:10;;;;;;;11.07;3.58;;;;;;;;;;4252820;33;20048;-74
2023/08/15 05:35:37;;;;;;;8.93;3.53;;;;;;;;;;4253141;33;20064;-75
2023/08/15 05:38:03;;;;;;;6.45;3.65;;;;;;;;;;4252401;33;20031;-75
2023/08/15 05:40:30;;;;;;;7.05;3.70;;;;;;;;;;4255127;33;20054;-75
2023/08/15 05:42:55;;;;;;;8.15;3.95;;;;;;;;;;4267104;33;20113;-75
2023/08/15 05:45:22;;;;;;;4.62;3.65;;;;;;;;;;4266516;33;20440;-74
2023/08/15 05:47:48;;;;;;;4.10;3.40;;;;;;;;;;4268099;33;20050;-75
2023/08/15 05:50:14;;;;;;;7.25;4.07;;;;;;;;;;4256323;33;20042;-75
2023/08/15 05:52:40;;;;;;;8.25;2.97;;;;;;;;;;4251524;33;20027;-74
2023/08/15 05:55:07;;;;;;;10.40;3.30;;;;;;;;;;4253200;33;20086;-75
2023/08/15 05:57:32;;;;;;;6.03;4.80;;;;;;;;;;4253568;33;20035;-75
2023/08/15 05:59:59;;;;;;;9.63;4.28;;;;;;;;;;4275684;33;20053;-75
2023/08/15 06:02:25;;;;;;;6.70;3.58;;;;;;;;;;4282146;33;20058;-75
2023/08/15 06:04:52;;;;;;;8.65;3.30;;;;;;;;;;4280678;33;20485;-75
2023/08/15 06:07:18;;;;;;;4.32;3.28;;;;;;;;;;4280805;33;20220;-74
2023/08/15 06:09:45;;;;;;;9.07;3.40;;;;;;;;;;4282275;33;20083;-76
2023/08/15 06:12:11;;;;;;;3.90;3.33;;;;;;;;;;4282577;33;20177;-75
2023/08/15 06:14:39;;;;;;;4.12;2.80;;;;;;;;;;4282290;33;20079;-76
2023/08/15 06:17:05;;;;;;;6.32;3.65;;;;;;;;;;4290880;33;20046;-76
2023/08/15 06:19:31;;;;;;;7.18;4.30;;;;;;;;;;4296644;33;20071;-75
2023/08/15 06:21:57;;;;;;;5.68;3.65;;;;;;;;;;4295961;33;20037;-76
2023/08/15 06:24:23;;;;;;;13.30;3.47;;;;;;;;;;4296855;33;20055;-75
2023/08/15 06:26:49;;;;;;;5.00;3.83;;;;;;;;;;4252318;33;20174;-75
2023/08/15 06:29:15;;;;;;;6.72;3.05;;;;;;;;;;4250620;33;20388;-77
2023/08/15 06:31:41;;;;;;;6.35;3.37;;;;;;;;;;4265715;33;20074;-75
2023/08/15 06:34:08;;;;;;;8.35;3.17;;;;;;;;;;4267498;33;20107;-75
2023/08/15 06:36:34;;;;;;;8.40;2.90;;;;;;;;;;4267234;33;20425;-75
2023/08/15 06:39:00;;;;;;;5.60;3.00;;;;;;;;;;4265106;33;20076;-78
2023/08/15 06:41:26;;;;;;;3.90;2.78;;;;;;;;;;4264659;33;20045;-76
2023/08/15 06:43:53;;;;;;;11.93;3.33;;;;;;;;;;4253245;33;20066;-83
2023/08/15 06:46:18;;;;;;;9.38;3.40;;;;;;;;;;4253146;33;20365;-77
2023/08/15 06:48:45;;;;;;;6.85;3.97;;;;;;;;;;4252056;33;20033;-81
2023/08/15 06:51:11;;;;;;;12.45;3.22;;;;;;;;;;4223821;34;20035;-78
2023/08/15 06:53:41;;;;;;;7.00;3.12;;;;;;;;;;4222515;34;20227;-84
2023/08/15 06:56:09;;;;;;;5.47;3.03;;;;;;;;;;4223842;34;20043;-78
2023/08/15 06:58:35;;;;;;;9.85;2.78;;;;;;;;;;4258489;33;20046;-79
2023/08/15 07:01:02;;;;;;;8.85;3.25;;;;;;;;;;4264475;33;20453;-79
2023/08/15 07:03:28;;;;;;;4.22;2.65;;;;;;;;;;4262725;33;20458;-78
2023/08/15 07:05:54;;;;;;;9.93;3.22;;;;;;;;;;4237491;33;20050;-79
2023/08/15 07:08:20;;;;;;;2.75;2.55;;;;;;;;;;4236302;33;20058;-79
2023/08/15 07:10:47;;;;;;;13.20;3.12;;;;;;;;;;4237279;33;20056;-77
2023/08/15 07:13:13;;;;;;;5.32;2.60;;;;;;;;;;4237182;33;20405;-79
2023/08/15 07:15:39;;;;;;;4.97;2.90;;;;;;;;;;4245870;33;20027;-79
2023/08/15 07:18:06;;;;;;;3.03;2.83;;;;;;;;;;4252138;33;20076;-81
2023/08/15 07:20:31;;;;;;;6.78;2.33;;;;;;;;;;4251141;33;20034;-78
2023/08/15 07:22:58;;;;;;;2.80;2.60;;;;;;;;;;4274288;33;20118;-78
2023/08/15 07:25:24;;;;;;;3.75;2.83;;;;;;;;;;4280711;33;20355;-79
2023/08/15 07:27:51;;;;;;;3.42;3.15;;;;;;;;;;4276955;33;20057;-78
2023/08/15 07:30:18;;;;;;;2.90;2.60;;;;;;;;;;4279213;33;20120;-80
2023/08/15 07:32:44;;;;;;;6.95;2.65;;;;;;;;;;4265346;33;20053;-77
2023/08/15 07:35:10;;;;;;;8.20;2.90;;;;;;;;;;4263902;33;20070;-77
2023/08/15 07:37:36;;;;;;;8.25;3.47;;;;;;;;;;4260661;33;20093;-77
2023/08/15 07:40:08;;;;;;;7.87;3.87;;;;;;;;;;4263411;33;20448;-78
2023/08/15 07:42:34;;;;;;;13.02;3.28;;;;;;;;;;4263569;33;20049;-79
2023/08/15 07:45:00;;;;;;;3.55;2.05;;;;;;;;;;4264122;33;20056;-80
2023/08/15 07:47:27;;;;;;;10.93;2.60;;;;;;;;;;4264054;33;20360;-79
2023/08/15 07:50:11;;;;;;;5.15;2.37;;;;;;;;;;4276505;33;20025;-77
2023/08/15 07:52:37;;;;;;;5.35;2.60;;;;;;;;;;4276592;33;20492;-78
2023/08/15 07:55:04;;;;;;;10.05;3.20;;;;;;;;;;4263880;33;20034;-79
2023/08/15 07:57:30;;;;;;;4.20;2.67;;;;;;;;;;4261490;33;20072;-78
2023/08/15 07:59:56;;;;;;;8.73;3.10;;;;;;;;;;4262572;33;20037;-78
2023/08/15 08:02:24;;;;;;;8.23;2.80;;;;;;;;;;4267763;33;20534;-80
2023/08/15 08:04:51;;;;;;;3.97;2.45;;;;;;;;;;4275740;33;20071;-77
2023/08/15 08:07:17;;;;;;;7.22;2.30;;;;;;;;;;4269293;33;20059;-78
2023/08/15 08:09:43;;;;;;;3.05;2.62;;;;;;;;;;4279971;33;20041;-79
2023/08/15 08:12:10;;;;;;;5.40;2.90;;;;;;;;;;4281663;33;20048;-78
2023/08/15 08:14:36;;;;;;;5.22;3.10;;;;;;;;;;4292455;33;20148;-76
2023/08/15 08:17:02;;;;;;;3.03;2.72;;;;;;;;;;4291835;33;20533;-81
2023/08/15 08:19:28;;;;;;;5.62;2.70;;;;;;;;;;4293044;33;20453;-75
2023/08/15 08:21:55;;;;;;;5.22;2.83;;;;;;;;;;4291427;33;20044;-79
2023/08/15 08:24:21;;;;;;;4.47;2.92;;;;;;;;;;4264046;33;20042;-80
2023/08/15 08:26:47;;;;;;;6.37;3.20;;;;;;;;;;4272127;33;20541;-81
2023/08/15 08:29:14;;;;;;;5.05;3.03;;;;;;;;;;4264548;33;20055;-81
2023/08/15 08:31:41;;;;;;;9.00;3.05;;;;;;;;;;4263943;33;20349;-79
2023/08/15 08:34:14;;;;;;;5.78;2.92;;;;;;;;;;4276867;33;20179;-78
2023/08/15 08:36:40;;;;;;;8.43;3.20;;;;;;;;;;4269950;33;21018;-79
2023/08/15 08:39:07;;;;;;;5.18;3.67;;;;;;;;;;4276911;33;20467;-80
2023/08/15 08:41:37;;;;;;;8.13;3.65;;;;;;;;;;4279267;33;20067;-79
2023/08/15 08:44:03;;;;;;;5.95;2.70;;;;;;;;;;4278196;33;20455;-78
2023/08/15 08:46:30;;;;;;;4.60;2.22;;;;;;;;;;4276717;33;20144;-79
2023/08/15 08:48:56;;;;;;;3.35;2.55;;;;;;;;;;4277807;33;20045;-79
2023/08/15 08:51:23;;;;;;;6.75;3.15;;;;;;;;;;4277152;33;20137;-78
2023/08/15 08:53:49;;;;;;;2.67;2.45;;;;;;;;;;4279405;33;20042;-79
2023/08/15 08:56:17;;;;;;;7.00;3.22;;;;;;;;;;4304278;33;20493;-78
2023/08/15 08:58:47;;;;;;;11.23;4.07;;;;;;;;;;4320535;33;20048;-77
2023/08/15 09:01:13;;;;;;;3.27;2.73;;;;;;;;;;4321729;33;20526;-77
2023/08/15 09:03:40;;;;;;;6.20;2.50;;;;;;;;;;4311845;33;20049;-78
2023/08/15 09:06:07;;;;;;;7.12;2.50;;;;;;;;;;4309830;33;20041;-78
2023/08/15 09:08:34;;;;;;;9.07;3.58;;;;;;;;;;4309414;33;20363;-76
2023/08/15 09:11:00;;;;;;;2.40;2.20;;;;;;;;;;4308587;33;20061;-78
2023/08/15 09:13:26;;;;;;;10.00;2.47;;;;;;;;;;4299277;33;20470;-77
2023/08/15 09:15:58;;;;;;;3.30;2.55;;;;;;;;;;4294178;33;20049;-78
2023/08/15 09:18:24;;;;;;;;;;;;;;;;;;4294108;33;20049;-79
2023/08/15 09:20:50;;;;;;;3.20;2.25;;;;;;;;;;4292352;33;20438;-77
2023/08/15 09:23:16;;;;;;;4.78;2.65;;;;;;;;;;4295765;33;20045;-78
2023/08/15 09:25:42;;;;;;;4.90;3.20;;;;;;;;;;4296671;33;20041;-79
2023/08/15 09:28:08;;;;;;;4.40;2.62;;;;;;;;;;4311008;33;20206;-80
2023/08/15 09:30:36;;;;;;;5.20;3.08;;;;;;;;;;4310214;33;20041;-79
2023/08/15 09:33:04;;;;;;;3.47;2.65;;;;;;;;;;4309359;33;20165;-77
2023/08/15 09:35:31;;;;;;;3.65;3.08;;;;;;;;;;4313804;33;20048;-80
2023/08/15 09:37:56;;;;;;;10.10;3.20;;;;;;;;;;4316867;33;20040;-79
2023/08/15 09:40:24;;;;;;;6.37;3.25;;;;;;;;;;4324676;33;20199;-75
2023/08/15 09:42:53;;;;;;;5.62;3.58;;;;;;;;;;4299773;33;20093;-78
2023/08/15 09:45:19;;;;;;;3.03;2.70;;;;;;;;;;4308758;33;20127;-76
2023/08/15 09:47:45;;;;;;;7.15;2.65;;;;;;;;;;4310359;33;20088;-76
2023/08/15 09:50:12;;;;;;;11.75;3.25;;;;;;;;;;4309815;33;20104;-77
2023/08/15 09:52:42;;;;;;;2.90;2.70;;;;;;;;;;4301484;33;20084;-77
2023/08/15 09:55:12;;;;;;;8.82;3.17;;;;;;;;;;4299693;33;20391;-76
2023/08/15 09:57:45;;;;;;;6.87;2.80;;;;;;;;;;4299047;33;20036;-78
2023/08/15 10:00:12;;;;;;;6.57;3.33;;;;;;;;;;4269187;33;20187;-77
2023/08/15 10:02:45;;;;;;;5.62;3.78;;;;;;;;;;4267701;33;20444;-77
2023/08/15 10:05:16;;;;;;;3.33;2.80;;;;;;;;;;4266261;33;20050;-76
2023/08/15 10:07:43;;;;;;;3.95;2.78;;;;;;;;;;4265985;33;20049;-77
2023/08/15 10:10:09;;;;;;;3.37;2.53;;;;;;;;;;4265279;33;20104;-79
2023/08/15 10:12:37;;;;;;;3.12;2.90;;;;;;;;;;4237794;33;20060;-78
2023/08/15 10:15:05;;;;;;;5.22;3.75;;;;;;;;;;4234834;33;20077;-78
2023/08/15 10:17:32;;;;;;;4.15;2.60;;;;;;;;;;4235822;33;20131;-79
2023/08/15 10:20:02;;;;;;;5.32;3.00;;;;;;;;;;4234617;33;20123;-78
2023/08/15 10:22:29;;;;;;;5.70;3.53;;;;;;;;;;4237593;33;20066;-78
2023/08/15 10:24:56;;;;;;;3.42;3.15;;;;;;;;;;4260213;33;20369;-79
2023/08/15 10:27:24;;;;;;;3.03;2.67;;;;;;;;;;4270139;33;20420;-78
2023/08/15 10:29:54;;;;;;;3.42;2.92;;;;;;;;;;4259277;33;20038;-78
2023/08/15 10:32:24;;;;;;;3.72;2.62;;;;;;;;;;4253272;33;20079;-78
2023/08/15 10:34:51;;;;;;;10.80;2.80;;;;;;;;;;4242955;33;20050;-78
2023/08/15 10:37:27;;;;;;;6.72;3.55;;;;;;;;;;4256991;33;20080;-78
2023/08/15 10:40:06;;;;;;;12.93;3.53;;;;;;;;;;4271917;33;20399;-81
2023/08/15 10:42:51;;;;;;;12.80;4.25;;;;;;;;;;4259765;33;20163;-74
2023/08/15 10:45:19;;;;;;;5.75;2.75;;;;;;;;;;4270040;33;20096;-75
2023/08/15 10:47:45;;;;;;;11.18;2.97;;;;;;;;;;4267339;33;20050;-78
2023/08/15 10:50:12;;;;;;;5.60;3.87;;;;;;;;;;4260301;33;20061;-79
2023/08/15 10:52:41;;;;;;;9.23;3.80;;;;;;;;;;4264918;33;20222;-82
2023/08/15 10:55:08;;;;;;;10.35;3.58;;;;;;;;;;4265933;33;20080;-77
2023/08/15 10:57:41;;;;;;;18.92;3.30;;;;;;;;;;4266475;33;20050;-78
2023/08/15 11:03:05;;;;;;;3.85;3.53;;;;;;;;;;4286799;28;20030;-79
2023/08/15 11:05:32;;;;;;;5.97;3.25;;;;;;;;;;4248922;33;20076;-79
2023/08/15 11:08:14;;;;;;;7.82;3.45;;;;;;;;;;4249775;33;20084;-77
2023/08/15 11:10:44;;;;;;;3.62;2.85;;;;;;;;;;4262879;33;20382;-79
2023/08/15 11:13:10;;;;;;;6.72;3.47;;;;;;;;;;4304985;33;20062;-77
2023/08/15 11:15:37;;;;;;;6.50;3.22;;;;;;;;;;4308046;33;20055;-78
2023/08/15 11:18:03;;;;;;;6.95;3.25;;;;;;;;;;4307735;33;20323;-77
2023/08/15 11:20:30;;;;;;;16.60;3.08;;;;;;;;;;4299724;33;20037;-77
2023/08/15 11:22:57;;;;;;;8.63;3.45;;;;;;;;;;4309887;33;20092;-78
2023/08/15 11:25:24;;;;;;;5.07;3.35;;;;;;;;;;4308583;33;20409;-79
2023/08/15 11:27:52;;;;;;;7.95;3.17;;;;;;;;;;4307046;33;20036;-78
2023/08/15 11:30:19;;;;;;;4.12;2.90;;;;;;;;;;4307971;33;20340;-78
2023/08/15 11:32:45;;;;;;;13.82;3.37;;;;;;;;;;4309067;33;20430;-78
2023/08/15 11:35:13;;;;;;;6.90;2.70;;;;;;;;;;4308686;33;20074;-77
2023/08/15 11:37:42;;;;;;;7.12;2.45;;;;;;;;;;4311753;33;20091;-77
2023/08/15 11:40:12;;;;;;;2.28;2.17;;;;;;;;;;4310388;33;20393;-77
2023/08/15 11:42:38;;;;;;;8.05;3.08;;;;;;;;;;4298306;33;20048;-77
2023/08/15 11:45:16;;;;;;;3.85;2.67;;;;;;;;;;4290959;33;20064;-77
2023/08/15 11:47:56;;;;;;;7.20;3.45;;;;;;;;;;4285889;33;20044;-78
2023/08/15 11:50:26;;;;;;;4.37;2.87;;;;;;;;;;4270576;33;20053;-77
2023/08/15 11:52:53;;;;;;;3.78;2.45;;;;;;;;;;4266915;33;20077;-78
2023/08/15 11:55:20;;;;;;;3.85;2.83;;;;;;;;;;4271889;33;20034;-78
2023/08/15 11:57:47;;;;;;;6.22;2.90;;;;;;;;;;4272452;33;20084;-79
2023/08/15 12:00:20;;;;;;;8.70;2.50;;;;;;;;;;4280956;33;20048;-77
2023/08/15 12:02:48;;;;;;;4.62;2.80;;;;;;;;;;4273905;33;20075;-77
2023/08/15 12:05:16;;;;;;;2.75;2.55;;;;;;;;;;4278933;33;20424;-77
2023/08/15 12:07:42;;;;;;;7.90;2.28;;;;;;;;;;4273499;33;20356;-79
2023/08/15 12:10:09;;;;;;;3.72;2.87;;;;;;;;;;4268503;33;20041;-79
2023/08/15 12:12:36;;;;;;;6.55;3.12;;;;;;;;;;4265039;33;20507;-78
2023/08/15 12:15:03;;;;;;;8.15;2.92;;;;;;;;;;4264269;33;20042;-79
2023/08/15 12:17:29;;;;;;;4.10;2.83;;;;;;;;;;4262045;33;20463;-77
2023/08/15 12:19:55;;;;;;;4.30;3.00;;;;;;;;;;4262398;33;20732;-77
2023/08/15 12:22:21;;;;;;;2.45;2.33;;;;;;;;;;4263706;33;20061;-78
2023/08/15 12:24:54;;;;;;;3.28;2.97;;;;;;;;;;4275766;33;20048;-78
2023/08/15 12:27:21;;;;;;;3.37;3.12;;;;;;;;;;4279694;33;20520;-79
2023/08/15 12:29:47;;;;;;;5.95;2.72;;;;;;;;;;4274192;33;20053;-78
2023/08/15 12:32:14;;;;;;;7.55;3.05;;;;;;;;;;4279926;33;20038;-78
2023/08/15 12:34:41;;;;;;;5.95;3.00;;;;;;;;;;4276191;33;21603;-78
2023/08/15 12:37:07;;;;;;;5.85;2.60;;;;;;;;;;4278504;33;20446;-78
2023/08/15 12:39:33;;;;;;;5.95;3.00;;;;;;;;;;4278133;33;20052;-77
2023/08/15 12:41:59;;;;;;;4.03;2.97;;;;;;;;;;4278532;33;20051;-77
2023/08/15 12:44:25;;;;;;;5.72;3.00;;;;;;;;;;4278966;33;20478;-78
2023/08/15 12:46:51;;;;;;;4.65;3.55;;;;;;;;;;4280803;33;20071;-76
2023/08/15 12:49:18;;;;;;;3.58;2.75;;;;;;;;;;4278451;33;20067;-77
2023/08/15 12:51:44;;;;;;;2.90;2.70;;;;;;;;;;4245546;33;20092;-78
2023/08/15 12:54:10;;;;;;;3.37;2.78;;;;;;;;;;4251603;33;20058;-76
2023/08/15 12:56:36;;;;;;;2.28;2.17;;;;;;;;;;4262616;33;20497;-77
2023/08/15 12:59:02;;;;;;;10.45;3.25;;;;;;;;;;4268505;33;20041;-78
2023/08/15 13:01:29;;;;;;;4.18;3.05;;;;;;;;;;4264491;33;20941;-80
2023/08/15 13:03:55;;;;;;;3.90;2.33;;;;;;;;;;4286708;33;20120;-80
2023/08/15 13:06:21;;;;;;;7.78;3.28;;;;;;;;;;4288969;33;20028;-78
2023/08/15 13:08:48;;;;;;;3.95;2.95;;;;;;;;;;4289085;33;20049;-79
2023/08/15 13:11:15;;;;;;;6.05;2.70;;;;;;;;;;4291399;33;20114;-76
2023/08/15 13:13:42;;;;;;;6.68;2.70;;;;;;;;;;4285254;33;20059;-77
2023/08/15 13:16:25;;;;;;;2.92;2.50;;;;;;;;;;4293093;33;20081;-76
2023/08/15 13:18:52;;;;;;;7.55;2.55;;;;;;;;;;4267362;33;20068;-78
2023/08/15 13:21:19;;;;;;;4.97;2.37;;;;;;;;;;4237844;33;20038;-77
2023/08/15 13:23:45;;;;;;;4.72;3.00;;;;;;;;;;4236111;33;20128;-78
2023/08/15 13:26:11;;;;;;;5.45;2.40;;;;;;;;;;4239829;33;20526;-79
2023/08/15 13:28:38;;;;;;;3.10;2.37;;;;;;;;;;4234847;33;20385;-75
2023/08/15 13:31:03;;;;;;;5.68;2.45;;;;;;;;;;4224366;33;20197;-77
2023/08/15 13:33:31;;;;;;;7.37;2.25;;;;;;;;;;4222547;33;20038;-77
2023/08/15 13:35:57;;;;;;;6.18;2.72;;;;;;;;;;4221559;33;20416;-77
2023/08/15 13:38:23;;;;;;;3.37;2.53;;;;;;;;;;4225138;33;20118;-76
2023/08/15 13:40:49;;;;;;;3.25;2.30;;;;;;;;;;4225658;33;20442;-76
2023/08/15 13:43:15;;;;;;;4.95;2.42;;;;;;;;;;4225353;33;20092;-77
2023/08/15 13:45:41;;;;;;;7.20;2.47;;;;;;;;;;4225205;33;20035;-77
2023/08/15 13:48:07;;;;;;;4.80;2.45;;;;;;;;;;4238085;33;20042;-78
2023/08/15 13:50:33;;;;;;;11.60;3.92;;;;;;;;;;4232382;33;20076;-79
2023/08/15 13:53:01;;;;;;;3.50;3.03;;;;;;;;;;4235346;33;20443;-79
2023/08/15 13:55:27;;;;;;;10.32;3.08;;;;;;;;;;4242369;33;20493;-79
2023/08/15 13:57:53;;;;;;;4.40;2.20;;;;;;;;;;4265913;33;20072;-79
2023/08/15 14:00:19;;;;;;;3.75;2.55;;;;;;;;;;4264027;33;20058;-79
2023/08/15 14:02:45;;;;;;;3.33;2.50;;;;;;;;;;4267193;33;20049;-80
2023/08/15 14:05:11;;;;;;;2.80;2.58;;;;;;;;;;4275704;33;20063;-79
2023/08/15 14:07:37;;;;;;;2.95;2.50;;;;;;;;;;4299295;33;20453;-81
2023/08/15 14:10:05;;;;;;;4.60;2.60;;;;;;;;;;4309694;33;20113;-80
2023/08/15 14:12:31;;;;;;;9.27;2.40;;;;;;;;;;4303451;33;20045;-80
2023/08/15 14:14:57;;;;;;;5.78;2.37;;;;;;;;;;4302014;33;20075;-80
2023/08/15 14:17:24;;;;;;;7.50;2.85;;;;;;;;;;4301605;33;20053;-77
2023/08/15 14:19:50;;;;;;;9.95;2.35;;;;;;;;;;4301453;33;20033;-78
2023/08/15 14:22:16;;;;;;;6.22;2.55;;;;;;;;;;4297833;33;20045;-78
2023/08/15 14:24:48;;;;;;;6.65;2.62;;;;;;;;;;4295707;33;20075;-77
2023/08/15 14:27:15;;;;;;;8.65;2.75;;;;;;;;;;4298268;33;20082;-78
2023/08/15 14:29:41;;;;;;;5.28;2.65;;;;;;;;;;4298475;33;20045;-76
2023/08/15 14:32:07;;;;;;;4.53;2.53;;;;;;;;;;4281507;33;20204;-75
2023/08/15 14:34:34;;;;;;;5.25;3.25;;;;;;;;;;4278790;33;20045;-76
2023/08/15 14:37:00;;;;;;;2.55;2.12;;;;;;;;;;4280979;33;20063;-75
2023/08/15 14:39:26;;;;;;;8.45;3.08;;;;;;;;;;4280973;33;20055;-76
2023/08/15 14:41:52;;;;;;;2.60;2.40;;;;;;;;;;4252830;33;20067;-78
2023/08/15 14:44:18;;;;;;;2.67;2.40;;;;;;;;;;4251325;33;20060;-84
2023/08/15 14:46:45;;;;;;;5.68;2.15;;;;;;;;;;4250627;33;20085;-78
2023/08/15 14:49:11;;;;;;;7.90;2.53;;;;;;;;;;4251345;33;20601;-77
2023/08/15 14:51:37;;;;;;;6.07;2.12;;;;;;;;;;4251678;33;20064;-76
2023/08/15 14:54:04;;;;;;;7.00;2.95;;;;;;;;;;4235193;33;20058;-75
2023/08/15 14:56:30;;;;;;;2.33;2.22;;;;;;;;;;4226850;33;20419;-76
2023/08/15 14:58:56;;;;;;;5.53;2.50;;;;;;;;;;4228141;33;20988;-77
2023/08/15 15:01:23;;;;;;;7.00;2.30;;;;;;;;;;4234824;33;20400;-75
2023/08/15 15:03:48;;;;;;;8.45;2.58;;;;;;;;;;4212786;33;20102;-76
2023/08/15 15:06:17;;;;;;;3.08;2.67;;;;;;;;;;4216504;33;20055;-75
2023/08/15 15:08:44;;;;;;;8.30;2.80;;;;;;;;;;4209492;34;20467;-80
2023/08/15 15:11:10;;;;;;;15.13;4.93;;;;;;;;;;4208152;34;20063;-76
2023/08/15 15:13:36;;;;;;;9.13;2.33;;;;;;;;;;4212278;34;20077;-75
2023/08/15 15:16:03;;;;;;;3.75;2.10;;;;;;;;;;4216419;34;20416;-76
2023/08/15 15:18:29;;;;;;;4.30;1.90;;;;;;;;;;4221976;34;20105;-77
2023/08/15 15:20:55;;;;;;;2.53;2.15;;;;;;;;;;4221999;33;20134;-77
2023/08/15 15:23:22;;;;;;;5.18;2.37;;;;;;;;;;4221400;34;20042;-78
2023/08/15 15:25:48;;;;;;;3.33;2.40;;;;;;;;;;4231029;33;20076;-76
2023/08/15 15:28:14;;;;;;;4.40;2.00;;;;;;;;;;4236025;33;20054;-76
2023/08/15 15:30:40;;;;;;;8.68;2.42;;;;;;;;;;4236502;33;20578;-76
2023/08/15 15:33:06;;;;;;;2.60;2.40;;;;;;;;;;4209348;34;20069;-74
2023/08/15 15:35:32;;;;;;;6.07;2.00;;;;;;;;;;4234228;33;20578;-76
2023/08/15 15:39:19;;;;;;;5.60;2.58;;;;;;;;;;4492602;31;20135;-77
2023/08/15 15:41:45;;;;;;;4.72;2.65;;;;;;;;;;4456131;32;20064;-77
2023/08/15 15:44:11;;;;;;;2.58;2.28;;;;;;;;;;4455557;32;20037;-75
2023/08/15 15:46:38;;;;;;;5.43;2.55;;;;;;;;;;4456623;32;20492;-77
2023/08/15 15:49:04;;;;;;;3.92;2.22;;;;;;;;;;4452676;32;20041;-78
2023/08/15 15:51:30;;;;;;;4.62;2.50;;;;;;;;;;4456118;32;20278;-76
2023/08/15 15:53:56;;;;;;;5.82;2.80;;;;;;;;;;4428628;32;20420;-77
2023/08/15 15:56:22;;;;;;;3.17;2.92;;;;;;;;;;4438922;32;20058;-78
2023/08/15 15:58:48;;;;;;;3.00;2.72;;;;;;;;;;4445238;32;20392;-80
2023/08/15 16:01:14;;;;;;;6.53;3.12;;;;;;;;;;4443614;32;20064;-77
2023/08/15 16:03:41;;;;;;;7.32;2.87;;;;;;;;;;4440687;32;20126;-78
2023/08/15 16:06:07;;;;;;;7.12;3.05;;;;;;;;;;4440904;32;20052;-78
2023/08/15 16:08:33;;;;;;;6.60;2.80;;;;;;;;;;4441047;32;20046;-78
2023/08/15 16:11:00;;;;;;;3.87;3.15;;;;;;;;;;4418140;32;20062;-77
2023/08/15 16:13:33;;;;;;;3.00;2.30;;;;;;;;;;4428303;32;20050;-79
2023/08/15 16:16:00;;;;;;;2.42;2.25;;;;;;;;;;4422993;32;20046;-78
2023/08/15 16:18:27;;;;;;;8.55;2.35;;;;;;;;;;4415468;32;20187;-79
2023/08/15 16:20:53;;;;;;;5.37;2.47;;;;;;;;;;4372859;32;20047;-79
2023/08/15 16:23:19;;;;;;;4.25;2.28;;;;;;;;;;4347833;32;20047;-78
2023/08/15 16:25:46;;;;;;;7.25;2.72;;;;;;;;;;4342294;33;20044;-80
2023/08/15 16:28:12;;;;;;;6.95;3.10;;;;;;;;;;4347551;33;20036;-78
2023/08/15 16:30:39;;;;;;;2.87;2.67;;;;;;;;;;4348926;33;20373;-79
2023/08/15 16:33:05;;;;;;;5.82;3.03;;;;;;;;;;4346374;33;20040;-77
2023/08/15 16:35:32;;;;;;;5.68;3.45;;;;;;;;;;4346195;33;20063;-78
2023/08/15 16:37:58;;;;;;;3.12;2.78;;;;;;;;;;4335071;33;20391;-79
2023/08/15 16:40:25;;;;;;;3.25;2.33;;;;;;;;;;4333157;33;20066;-79
2023/08/15 16:43:14;;;;;;;8.65;4.87;;;;;;;;;;4330097;33;20252;-79
2023/08/15 16:45:42;;;;;;;3.12;2.95;;;;;;;;;;4326079;33;20044;-78
2023/08/15 16:48:09;;;;;;;5.43;3.12;;;;;;;;;;4332897;33;20068;-79